sensor_id;sensor_type;location;lat;lon;timestamp;temperature;humidity
54680;DHT22;40578;53.178;5.846;2022-12-18T00:01:49;-3.20;99.90
54680;DHT22;40578;53.178;5.846;2022-12-18T00:04:21;-3.20;99.90
54680;DHT22;40578;53.178;5.846;2022-12-18T00:06:47;-3.40;99.90
54680;DHT22;40578;53.178;5.846;2022-12-18T00:09:13;-3.40;99.90
54680;DHT22;40578;53.178;5.846;2022-12-18T00:11:39;-3.60;99.90
54680;DHT22;40578;53.178;5.846;2022-12-18T00:14:04;-3.40;99.90
54680;DHT22;40578;53.178;5.846;2022-12-18T00:16:30;-3.30;99.90
54680;DHT22;40578;53.178;5.846;2022-12-18T00:18:59;-3.40;99.90
54680;DHT22;40578;53.178;5.846;2022-12-18T00:21:26;-3.40;99.90
54680;DHT22;40578;53.178;5.846;2022-12-18T00:23:52;-2.60;99.90
54680;DHT22;40578;53.178;5.846;2022-12-18T00:26:24;-3.30;99.90
54680;DHT22;40578;53.178;5.846;2022-12-18T00:28:51;-3.60;99.90
54680;DHT22;40578;53.178;5.846;2022-12-18T00:31:20;-3.60;99.90
54680;DHT22;40578;53.178;5.846;2022-12-18T00:33:46;-3.60;99.90
54680;DHT22;40578;53.178;5.846;2022-12-18T00:36:13;-3.50;99.90
54680;DHT22;40578;53.178;5.846;2022-12-18T00:38:41;-3.60;99.90
54680;DHT22;40578;53.178;5.846;2022-12-18T00:41:09;-3.70;99.90
54680;DHT22;40578;53.178;5.846;2022-12-18T00:43:35;-3.50;99.90
54680;DHT22;40578;53.178;5.846;2022-12-18T00:46:01;-3.50;99.90
54680;DHT22;40578;53.178;5.846;2022-12-18T00:48:27;-3.60;99.90
54680;DHT22;40578;53.178;5.846;2022-12-18T00:50:52;-3.40;99.90
54680;DHT22;40578;53.178;5.846;2022-12-18T00:53:18;-3.60;99.90
54680;DHT22;40578;53.178;5.846;2022-12-18T00:55:44;-3.40;99.90
54680;DHT22;40578;53.178;5.846;2022-12-18T00:58:11;-3.70;99.90
54680;DHT22;40578;53.178;5.846;2022-12-18T01:00:37;-3.60;99.90
54680;DHT22;40578;53.178;5.846;2022-12-18T01:03:03;-3.40;99.90
54680;DHT22;40578;53.178;5.846;2022-12-18T01:05:30;-3.60;99.90
54680;DHT22;40578;53.178;5.846;2022-12-18T01:07:56;-3.60;99.90
54680;DHT22;40578;53.178;5.846;2022-12-18T01:10:22;-3.70;99.90
54680;DHT22;40578;53.178;5.846;2022-12-18T01:12:47;-3.60;99.90
54680;DHT22;40578;53.178;5.846;2022-12-18T01:15:14;-3.50;99.90
54680;DHT22;40578;53.178;5.846;2022-12-18T01:17:40;-3.60;99.90
54680;DHT22;40578;53.178;5.846;2022-12-18T01:20:06;-3.80;99.90
54680;DHT22;40578;53.178;5.846;2022-12-18T01:22:32;-3.60;99.90
54680;DHT22;40578;53.178;5.846;2022-12-18T01:25:01;-3.70;99.90
54680;DHT22;40578;53.178;5.846;2022-12-18T01:27:27;-3.50;99.90
54680;DHT22;40578;53.178;5.846;2022-12-18T01:29:52;-3.50;99.90
54680;DHT22;40578;53.178;5.846;2022-12-18T01:32:18;-3.50;99.90
54680;DHT22;40578;53.178;5.846;2022-12-18T01:34:44;-3.50;99.90
54680;DHT22;40578;53.178;5.846;2022-12-18T01:37:09;-3.50;99.90
54680;DHT22;40578;53.178;5.846;2022-12-18T01:39:36;-3.60;99.90
54680;DHT22;40578;53.178;5.846;2022-12-18T01:42:10;-3.60;99.90
54680;DHT22;40578;53.178;5.846;2022-12-18T01:47:45;-3.60;99.90
54680;DHT22;40578;53.178;5.846;2022-12-18T01:50:18;-3.90;99.90
54680;DHT22;40578;53.178;5.846;2022-12-18T01:53:13;-3.90;99.90
54680;DHT22;40578;53.178;5.846;2022-12-18T01:55:48;-3.90;99.90
54680;DHT22;40578;53.178;5.846;2022-12-18T01:58:16;-3.70;99.90
54680;DHT22;40578;53.178;5.846;2022-12-18T02:00:42;-3.60;99.90
54680;DHT22;40578;53.178;5.846;2022-12-18T02:03:08;-3.90;99.90
54680;DHT22;40578;53.178;5.846;2022-12-18T02:09:00;-3.70;99.90
54680;DHT22;40578;53.178;5.846;2022-12-18T02:17:09;-4.00;99.90
54680;DHT22;40578;53.178;5.846;2022-12-18T02:22:21;-4.10;99.90
54680;DHT22;40578;53.178;5.846;2022-12-18T02:27:29;-4.10;99.90
54680;DHT22;40578;53.178;5.846;2022-12-18T02:29:57;-3.90;99.90
54680;DHT22;40578;53.178;5.846;2022-12-18T02:32:29;-3.90;99.90
54680;DHT22;40578;53.178;5.846;2022-12-18T02:34:57;-4.20;99.90
54680;DHT22;40578;53.178;5.846;2022-12-18T02:37:24;-4.10;99.90
54680;DHT22;40578;53.178;5.846;2022-12-18T02:39:52;-5.60;99.90
54680;DHT22;40578;53.178;5.846;2022-12-18T02:42:18;-4.00;99.90
54680;DHT22;40578;53.178;5.846;2022-12-18T02:44:47;-4.20;99.90
54680;DHT22;40578;53.178;5.846;2022-12-18T02:47:16;-4.00;99.90
54680;DHT22;40578;53.178;5.846;2022-12-18T02:58:04;-4.50;99.90
54680;DHT22;40578;53.178;5.846;2022-12-18T03:00:39;-4.60;99.90
54680;DHT22;40578;53.178;5.846;2022-12-18T03:03:36;-4.50;99.90
54680;DHT22;40578;53.178;5.846;2022-12-18T03:06:13;-4.60;99.90
54680;DHT22;40578;53.178;5.846;2022-12-18T03:08:44;-4.40;99.90
54680;DHT22;40578;53.178;5.846;2022-12-18T03:11:12;-4.70;99.90
54680;DHT22;40578;53.178;5.846;2022-12-18T03:13:55;-4.80;99.90
54680;DHT22;40578;53.178;5.846;2022-12-18T03:16:28;-4.80;99.90
54680;DHT22;40578;53.178;5.846;2022-12-18T03:19:01;-4.70;99.90
54680;DHT22;40578;53.178;5.846;2022-12-18T03:21:42;-4.80;99.90
54680;DHT22;40578;53.178;5.846;2022-12-18T03:24:09;-5.00;99.90
54680;DHT22;40578;53.178;5.846;2022-12-18T03:26:41;-5.00;99.90
54680;DHT22;40578;53.178;5.846;2022-12-18T03:29:14;-4.90;99.90
54680;DHT22;40578;53.178;5.846;2022-12-18T03:31:54;-5.00;99.90
54680;DHT22;40578;53.178;5.846;2022-12-18T03:34:26;-4.90;99.90
54680;DHT22;40578;53.178;5.846;2022-12-18T03:36:53;-4.90;99.90
54680;DHT22;40578;53.178;5.846;2022-12-18T03:39:21;-5.00;99.90
54680;DHT22;40578;53.178;5.846;2022-12-18T03:44:28;-4.80;99.90
54680;DHT22;40578;53.178;5.846;2022-12-18T03:55:09;-4.80;99.90
54680;DHT22;40578;53.178;5.846;2022-12-18T03:57:36;-5.00;99.90
54680;DHT22;40578;53.178;5.846;2022-12-18T04:00:15;-4.90;99.90
54680;DHT22;40578;53.178;5.846;2022-12-18T04:02:47;-5.00;99.90
54680;DHT22;40578;53.178;5.846;2022-12-18T04:05:14;-4.90;99.90
54680;DHT22;40578;53.178;5.846;2022-12-18T04:07:41;-4.90;99.90
54680;DHT22;40578;53.178;5.846;2022-12-18T04:10:12;-4.90;99.90
54680;DHT22;40578;53.178;5.846;2022-12-18T04:12:39;-5.00;99.90
54680;DHT22;40578;53.178;5.846;2022-12-18T04:15:06;-5.00;99.90
54680;DHT22;40578;53.178;5.846;2022-12-18T04:17:32;-5.10;99.90
54680;DHT22;40578;53.178;5.846;2022-12-18T04:19:57;-5.30;99.90
54680;DHT22;40578;53.178;5.846;2022-12-18T04:22:23;-5.40;99.90
54680;DHT22;40578;53.178;5.846;2022-12-18T04:24:49;-5.30;99.90
54680;DHT22;40578;53.178;5.846;2022-12-18T04:27:14;-5.30;99.90
54680;DHT22;40578;53.178;5.846;2022-12-18T04:29:40;-5.40;99.90
54680;DHT22;40578;53.178;5.846;2022-12-18T04:32:07;-5.60;99.90
54680;DHT22;40578;53.178;5.846;2022-12-18T04:34:32;-5.30;99.90
54680;DHT22;40578;53.178;5.846;2022-12-18T04:36:58;-5.40;99.90
54680;DHT22;40578;53.178;5.846;2022-12-18T04:39:24;-5.40;99.90
54680;DHT22;40578;53.178;5.846;2022-12-18T04:41:49;-5.50;99.90
54680;DHT22;40578;53.178;5.846;2022-12-18T04:44:15;-5.50;99.90
54680;DHT22;40578;53.178;5.846;2022-12-18T04:46:41;-5.60;99.90
54680;DHT22;40578;53.178;5.846;2022-12-18T04:49:07;-5.60;99.90
54680;DHT22;40578;53.178;5.846;2022-12-18T04:51:36;-6.10;99.90
54680;DHT22;40578;53.178;5.846;2022-12-18T04:54:01;-5.80;99.90
54680;DHT22;40578;53.178;5.846;2022-12-18T04:56:27;-5.80;99.90
54680;DHT22;40578;53.178;5.846;2022-12-18T04:58:53;-5.70;99.90
54680;DHT22;40578;53.178;5.846;2022-12-18T05:01:18;-5.90;99.90
54680;DHT22;40578;53.178;5.846;2022-12-18T05:03:44;-5.90;99.90
54680;DHT22;40578;53.178;5.846;2022-12-18T05:06:10;-6.00;99.90
54680;DHT22;40578;53.178;5.846;2022-12-18T05:08:36;-6.10;99.90
54680;DHT22;40578;53.178;5.846;2022-12-18T05:11:04;-6.00;99.90
54680;DHT22;40578;53.178;5.846;2022-12-18T05:13:31;-6.10;99.90
54680;DHT22;40578;53.178;5.846;2022-12-18T05:15:56;-6.10;99.90
54680;DHT22;40578;53.178;5.846;2022-12-18T05:18:25;-6.20;99.90
54680;DHT22;40578;53.178;5.846;2022-12-18T05:20:52;-6.20;99.90
54680;DHT22;40578;53.178;5.846;2022-12-18T05:23:18;-6.20;99.90
54680;DHT22;40578;53.178;5.846;2022-12-18T05:26:04;-6.20;99.90
54680;DHT22;40578;53.178;5.846;2022-12-18T05:28:32;-6.30;99.90
54680;DHT22;40578;53.178;5.846;2022-12-18T05:31:00;-6.30;99.90
54680;DHT22;40578;53.178;5.846;2022-12-18T05:33:30;-6.30;99.90
54680;DHT22;40578;53.178;5.846;2022-12-18T05:35:58;-6.20;99.90
54680;DHT22;40578;53.178;5.846;2022-12-18T05:38:28;-6.40;99.90
54680;DHT22;40578;53.178;5.846;2022-12-18T05:40:55;-6.40;99.90
54680;DHT22;40578;53.178;5.846;2022-12-18T05:43:21;-6.50;99.90
54680;DHT22;40578;53.178;5.846;2022-12-18T05:45:48;-6.50;99.90
54680;DHT22;40578;53.178;5.846;2022-12-18T05:48:14;-6.30;99.90
54680;DHT22;40578;53.178;5.846;2022-12-18T05:50:41;-6.60;99.90
54680;DHT22;40578;53.178;5.846;2022-12-18T05:53:08;-6.60;99.90
54680;DHT22;40578;53.178;5.846;2022-12-18T05:55:38;-6.60;99.90
54680;DHT22;40578;53.178;5.846;2022-12-18T05:58:05;-6.60;99.90
54680;DHT22;40578;53.178;5.846;2022-12-18T06:00:32;-6.60;99.90
54680;DHT22;40578;53.178;5.846;2022-12-18T06:02:59;-7.20;99.90
54680;DHT22;40578;53.178;5.846;2022-12-18T06:05:26;-6.60;99.90
54680;DHT22;40578;53.178;5.846;2022-12-18T06:07:51;-6.40;99.90
54680;DHT22;40578;53.178;5.846;2022-12-18T06:10:17;-6.60;99.90
54680;DHT22;40578;53.178;5.846;2022-12-18T06:12:42;-6.60;99.90
54680;DHT22;40578;53.178;5.846;2022-12-18T06:15:08;-6.60;99.90
54680;DHT22;40578;53.178;5.846;2022-12-18T06:17:34;-6.70;99.90
54680;DHT22;40578;53.178;5.846;2022-12-18T06:20:00;-6.70;99.90
54680;DHT22;40578;53.178;5.846;2022-12-18T06:22:27;-6.70;99.90
54680;DHT22;40578;53.178;5.846;2022-12-18T06:24:53;-6.60;99.90
54680;DHT22;40578;53.178;5.846;2022-12-18T06:27:18;-6.10;99.90
54680;DHT22;40578;53.178;5.846;2022-12-18T06:29:44;-6.30;99.90
54680;DHT22;40578;53.178;5.846;2022-12-18T06:32:10;-5.40;99.90
54680;DHT22;40578;53.178;5.846;2022-12-18T06:34:38;-6.80;99.90
54680;DHT22;40578;53.178;5.846;2022-12-18T06:37:04;-6.90;99.90
54680;DHT22;40578;53.178;5.846;2022-12-18T06:39:30;-6.90;99.90
54680;DHT22;40578;53.178;5.846;2022-12-18T06:41:56;-6.70;99.90
54680;DHT22;40578;53.178;5.846;2022-12-18T06:44:21;-6.80;99.90
54680;DHT22;40578;53.178;5.846;2022-12-18T06:46:47;-6.70;99.90
54680;DHT22;40578;53.178;5.846;2022-12-18T06:49:12;-6.30;99.90
54680;DHT22;40578;53.178;5.846;2022-12-18T06:51:38;-6.90;99.90
54680;DHT22;40578;53.178;5.846;2022-12-18T06:54:04;-6.80;99.90
54680;DHT22;40578;53.178;5.846;2022-12-18T06:56:30;-6.80;99.90
54680;DHT22;40578;53.178;5.846;2022-12-18T06:58:55;-5.90;99.90
54680;DHT22;40578;53.178;5.846;2022-12-18T07:01:22;-6.80;99.90
54680;DHT22;40578;53.178;5.846;2022-12-18T07:03:52;-6.70;99.90
54680;DHT22;40578;53.178;5.846;2022-12-18T07:06:21;-6.60;99.90
54680;DHT22;40578;53.178;5.846;2022-12-18T07:08:47;-6.70;99.90
54680;DHT22;40578;53.178;5.846;2022-12-18T07:11:13;-6.60;99.90
54680;DHT22;40578;53.178;5.846;2022-12-18T07:13:39;-6.70;99.90
54680;DHT22;40578;53.178;5.846;2022-12-18T07:16:10;-6.60;99.90
54680;DHT22;40578;53.178;5.846;2022-12-18T07:18:37;-6.70;99.90
54680;DHT22;40578;53.178;5.846;2022-12-18T07:21:09;-6.50;99.90
54680;DHT22;40578;53.178;5.846;2022-12-18T07:23:35;-6.70;99.90
54680;DHT22;40578;53.178;5.846;2022-12-18T07:26:11;-6.70;99.90
54680;DHT22;40578;53.178;5.846;2022-12-18T07:28:39;-6.80;99.90
54680;DHT22;40578;53.178;5.846;2022-12-18T07:31:07;-6.70;99.90
54680;DHT22;40578;53.178;5.846;2022-12-18T07:33:33;-6.80;99.90
54680;DHT22;40578;53.178;5.846;2022-12-18T07:36:03;-6.70;99.90
54680;DHT22;40578;53.178;5.846;2022-12-18T07:38:30;-6.80;99.90
54680;DHT22;40578;53.178;5.846;2022-12-18T07:43:28;-6.80;99.90
54680;DHT22;40578;53.178;5.846;2022-12-18T07:45:53;-6.70;99.90
54680;DHT22;40578;53.178;5.846;2022-12-18T07:48:19;-6.00;99.90
54680;DHT22;40578;53.178;5.846;2022-12-18T07:50:44;-6.80;99.90
54680;DHT22;40578;53.178;5.846;2022-12-18T07:53:10;-7.90;99.90
54680;DHT22;40578;53.178;5.846;2022-12-18T07:55:36;-6.60;99.90
54680;DHT22;40578;53.178;5.846;2022-12-18T07:58:03;-6.50;99.90
54680;DHT22;40578;53.178;5.846;2022-12-18T08:00:29;-6.60;99.90
54680;DHT22;40578;53.178;5.846;2022-12-18T08:02:54;-6.50;99.90
54680;DHT22;40578;53.178;5.846;2022-12-18T08:05:20;-6.50;99.90
54680;DHT22;40578;53.178;5.846;2022-12-18T08:07:46;-6.50;99.90
54680;DHT22;40578;53.178;5.846;2022-12-18T08:10:13;-6.20;99.90
54680;DHT22;40578;53.178;5.846;2022-12-18T08:12:38;-6.40;99.90
54680;DHT22;40578;53.178;5.846;2022-12-18T08:15:05;-6.30;99.90
54680;DHT22;40578;53.178;5.846;2022-12-18T08:17:31;-6.40;99.90
54680;DHT22;40578;53.178;5.846;2022-12-18T08:19:56;-6.30;99.90
54680;DHT22;40578;53.178;5.846;2022-12-18T08:22:22;-6.20;99.90
54680;DHT22;40578;53.178;5.846;2022-12-18T08:24:48;-6.30;99.90
54680;DHT22;40578;53.178;5.846;2022-12-18T08:27:13;-6.20;99.90
54680;DHT22;40578;53.178;5.846;2022-12-18T08:29:39;-6.20;99.90
54680;DHT22;40578;53.178;5.846;2022-12-18T08:32:04;-6.10;99.90
54680;DHT22;40578;53.178;5.846;2022-12-18T08:34:30;-6.10;99.90
54680;DHT22;40578;53.178;5.846;2022-12-18T08:36:56;-5.90;99.90
54680;DHT22;40578;53.178;5.846;2022-12-18T08:39:21;-5.90;99.90
54680;DHT22;40578;53.178;5.846;2022-12-18T08:41:47;-5.90;99.90
54680;DHT22;40578;53.178;5.846;2022-12-18T08:44:32;-5.80;99.90
54680;DHT22;40578;53.178;5.846;2022-12-18T08:47:07;-5.80;99.90
54680;DHT22;40578;53.178;5.846;2022-12-18T08:49:34;-5.70;99.90
54680;DHT22;40578;53.178;5.846;2022-12-18T08:52:00;-5.80;99.90
54680;DHT22;40578;53.178;5.846;2022-12-18T08:54:27;-7.40;99.90
54680;DHT22;40578;53.178;5.846;2022-12-18T08:56:52;-5.60;99.90
54680;DHT22;40578;53.178;5.846;2022-12-18T08:59:19;-5.60;99.90
54680;DHT22;40578;53.178;5.846;2022-12-18T09:01:46;-5.70;99.90
54680;DHT22;40578;53.178;5.846;2022-12-18T09:04:12;-5.60;99.90
54680;DHT22;40578;53.178;5.846;2022-12-18T09:06:39;-5.50;99.90
54680;DHT22;40578;53.178;5.846;2022-12-18T09:09:05;-5.40;99.90
54680;DHT22;40578;53.178;5.846;2022-12-18T09:11:32;-5.40;99.90
54680;DHT22;40578;53.178;5.846;2022-12-18T09:14:00;-5.30;99.90
54680;DHT22;40578;53.178;5.846;2022-12-18T09:16:27;-5.10;99.90
54680;DHT22;40578;53.178;5.846;2022-12-18T09:18:54;-5.20;99.90
54680;DHT22;40578;53.178;5.846;2022-12-18T09:21:26;-5.00;99.90
54680;DHT22;40578;53.178;5.846;2022-12-18T09:23:53;-5.00;99.90
54680;DHT22;40578;53.178;5.846;2022-12-18T09:26:21;-5.00;99.90
54680;DHT22;40578;53.178;5.846;2022-12-18T09:28:47;-4.80;99.90
54680;DHT22;40578;53.178;5.846;2022-12-18T09:31:13;-4.80;99.90
54680;DHT22;40578;53.178;5.846;2022-12-18T09:33:40;-4.80;99.90
54680;DHT22;40578;53.178;5.846;2022-12-18T09:36:08;-4.70;99.90
54680;DHT22;40578;53.178;5.846;2022-12-18T09:38:35;-4.60;99.90
54680;DHT22;40578;53.178;5.846;2022-12-18T09:41:06;-4.50;99.90
54680;DHT22;40578;53.178;5.846;2022-12-18T09:43:52;-4.60;99.90
54680;DHT22;40578;53.178;5.846;2022-12-18T09:46:25;-4.50;99.90
54680;DHT22;40578;53.178;5.846;2022-12-18T09:48:55;-4.60;99.90
54680;DHT22;40578;53.178;5.846;2022-12-18T09:51:43;-4.40;99.90
54680;DHT22;40578;53.178;5.846;2022-12-18T09:54:19;-4.40;99.90
54680;DHT22;40578;53.178;5.846;2022-12-18T09:56:46;-4.40;99.90
54680;DHT22;40578;53.178;5.846;2022-12-18T09:59:23;-4.30;99.90
54680;DHT22;40578;53.178;5.846;2022-12-18T10:01:49;-4.30;99.90
54680;DHT22;40578;53.178;5.846;2022-12-18T10:04:15;-4.20;99.90
54680;DHT22;40578;53.178;5.846;2022-12-18T10:07:06;-4.20;99.90
54680;DHT22;40578;53.178;5.846;2022-12-18T10:09:37;-4.30;99.90
54680;DHT22;40578;53.178;5.846;2022-12-18T10:12:19;-4.30;99.90
54680;DHT22;40578;53.178;5.846;2022-12-18T10:15:10;-4.10;99.90
54680;DHT22;40578;53.178;5.846;2022-12-18T10:18:04;-4.20;99.90
54680;DHT22;40578;53.178;5.846;2022-12-18T10:20:41;-4.10;99.90
54680;DHT22;40578;53.178;5.846;2022-12-18T10:26:07;-3.90;99.90
54680;DHT22;40578;53.178;5.846;2022-12-18T10:28:36;-3.90;99.90
54680;DHT22;40578;53.178;5.846;2022-12-18T10:31:05;-3.50;99.90
54680;DHT22;40578;53.178;5.846;2022-12-18T10:33:33;-3.80;99.90
54680;DHT22;40578;53.178;5.846;2022-12-18T10:35:59;-3.70;99.90
54680;DHT22;40578;53.178;5.846;2022-12-18T10:38:30;-3.70;99.90
54680;DHT22;40578;53.178;5.846;2022-12-18T10:40:59;-3.60;99.90
54680;DHT22;40578;53.178;5.846;2022-12-18T10:46:25;-3.50;99.90
54680;DHT22;40578;53.178;5.846;2022-12-18T10:48:54;-3.40;99.90
54680;DHT22;40578;53.178;5.846;2022-12-18T10:53:57;-3.30;99.90
54680;DHT22;40578;53.178;5.846;2022-12-18T10:56:24;-3.30;99.90
54680;DHT22;40578;53.178;5.846;2022-12-18T10:59:00;-3.20;99.90
54680;DHT22;40578;53.178;5.846;2022-12-18T11:01:26;-3.20;99.90
54680;DHT22;40578;53.178;5.846;2022-12-18T11:06:23;-3.10;99.90
54680;DHT22;40578;53.178;5.846;2022-12-18T11:09:04;-3.10;99.90
54680;DHT22;40578;53.178;5.846;2022-12-18T11:11:32;-3.00;99.90
54680;DHT22;40578;53.178;5.846;2022-12-18T11:14:03;-3.00;99.90
54680;DHT22;40578;53.178;5.846;2022-12-18T11:16:33;-2.90;99.90
54680;DHT22;40578;53.178;5.846;2022-12-18T11:21:58;-2.90;99.90
54680;DHT22;40578;53.178;5.846;2022-12-18T11:26:50;-2.80;99.90
54680;DHT22;40578;53.178;5.846;2022-12-18T11:29:18;-2.70;99.90
54680;DHT22;40578;53.178;5.846;2022-12-18T11:31:47;-2.80;99.90
54680;DHT22;40578;53.178;5.846;2022-12-18T11:36:45;-2.60;99.90
54680;DHT22;40578;53.178;5.846;2022-12-18T11:41:55;-2.60;99.90
54680;DHT22;40578;53.178;5.846;2022-12-18T11:47:14;-2.50;99.90
54680;DHT22;40578;53.178;5.846;2022-12-18T11:49:41;-2.50;99.90
54680;DHT22;40578;53.178;5.846;2022-12-18T11:52:22;-2.50;99.90
54680;DHT22;40578;53.178;5.846;2022-12-18T11:54:59;-2.50;99.90
54680;DHT22;40578;53.178;5.846;2022-12-18T12:14:14;-2.40;1.00
54680;DHT22;40578;53.178;5.846;2022-12-18T12:19:35;-2.40;99.90
54680;DHT22;40578;53.178;5.846;2022-12-18T12:30:22;-2.30;99.90
54680;DHT22;40578;53.178;5.846;2022-12-18T12:35:46;-2.10;99.90
54680;DHT22;40578;53.178;5.846;2022-12-18T12:40:53;-2.90;93.50
54680;DHT22;40578;53.178;5.846;2022-12-18T12:43:41;-2.10;99.90
54680;DHT22;40578;53.178;5.846;2022-12-18T12:46:10;-2.10;96.10
54680;DHT22;40578;53.178;5.846;2022-12-18T12:49:04;-2.10;99.90
54680;DHT22;40578;53.178;5.846;2022-12-18T12:51:35;-2.10;59.30
54680;DHT22;40578;53.178;5.846;2022-12-18T12:54:03;-2.10;23.60
54680;DHT22;40578;53.178;5.846;2022-12-18T12:56:39;-2.00;1.00
54680;DHT22;40578;53.178;5.846;2022-12-18T12:59:30;-2.10;1.00
54680;DHT22;40578;53.178;5.846;2022-12-18T13:02:21;-2.10;1.00
54680;DHT22;40578;53.178;5.846;2022-12-18T13:07:50;-2.10;1.00
54680;DHT22;40578;53.178;5.846;2022-12-18T13:13:20;-2.00;1.00
54680;DHT22;40578;53.178;5.846;2022-12-18T13:16:06;-2.00;1.00
54680;DHT22;40578;53.178;5.846;2022-12-18T13:18:32;-2.00;99.90
54680;DHT22;40578;53.178;5.846;2022-12-18T13:34:21;-1.90;1.00
54680;DHT22;40578;53.178;5.846;2022-12-18T13:36:47;-1.90;1.00
54680;DHT22;40578;53.178;5.846;2022-12-18T13:41:40;-1.90;1.00
54680;DHT22;40578;53.178;5.846;2022-12-18T13:46:53;-1.90;1.00
54680;DHT22;40578;53.178;5.846;2022-12-18T13:49:39;-1.80;1.00
54680;DHT22;40578;53.178;5.846;2022-12-18T13:52:22;-1.90;1.00
54680;DHT22;40578;53.178;5.846;2022-12-18T13:54:51;-1.80;1.00
54680;DHT22;40578;53.178;5.846;2022-12-18T13:57:32;-1.80;99.90
54680;DHT22;40578;53.178;5.846;2022-12-18T13:59:59;-1.80;99.90
54680;DHT22;40578;53.178;5.846;2022-12-18T14:02:45;-1.80;99.90
54680;DHT22;40578;53.178;5.846;2022-12-18T14:05:28;-1.80;86.80
54680;DHT22;40578;53.178;5.846;2022-12-18T14:08:09;-1.80;90.40
54680;DHT22;40578;53.178;5.846;2022-12-18T14:10:40;-1.80;99.90
54680;DHT22;40578;53.178;5.846;2022-12-18T14:13:09;-1.90;99.90
54680;DHT22;40578;53.178;5.846;2022-12-18T14:15:40;-1.80;99.90
54680;DHT22;40578;53.178;5.846;2022-12-18T14:18:32;-2.10;99.90
54680;DHT22;40578;53.178;5.846;2022-12-18T14:21:00;-1.80;97.90
54680;DHT22;40578;53.178;5.846;2022-12-18T14:23:40;-1.80;1.00
54680;DHT22;40578;53.178;5.846;2022-12-18T14:26:27;-1.80;1.00
54680;DHT22;40578;53.178;5.846;2022-12-18T14:28:59;-1.80;1.00
54680;DHT22;40578;53.178;5.846;2022-12-18T14:31:28;-1.70;1.00
54680;DHT22;40578;53.178;5.846;2022-12-18T14:33:54;-1.80;1.00
54680;DHT22;40578;53.178;5.846;2022-12-18T14:36:26;-1.80;1.00
54680;DHT22;40578;53.178;5.846;2022-12-18T14:38:56;-1.90;1.00
54680;DHT22;40578;53.178;5.846;2022-12-18T14:41:23;-1.80;1.00
54680;DHT22;40578;53.178;5.846;2022-12-18T14:43:50;-1.80;1.00
54680;DHT22;40578;53.178;5.846;2022-12-18T14:46:37;-1.80;99.90
54680;DHT22;40578;53.178;5.846;2022-12-18T14:49:26;-1.80;99.90
54680;DHT22;40578;53.178;5.846;2022-12-18T14:51:59;-1.80;99.90
54680;DHT22;40578;53.178;5.846;2022-12-18T14:54:26;-1.90;99.90
54680;DHT22;40578;53.178;5.846;2022-12-18T14:57:02;-1.90;99.90
54680;DHT22;40578;53.178;5.846;2022-12-18T14:59:29;-2.00;1.00
54680;DHT22;40578;53.178;5.846;2022-12-18T15:02:17;-1.90;1.00
54680;DHT22;40578;53.178;5.846;2022-12-18T15:04:44;-1.90;1.00
54680;DHT22;40578;53.178;5.846;2022-12-18T15:07:21;-2.00;1.00
54680;DHT22;40578;53.178;5.846;2022-12-18T15:12:42;-1.90;1.00
54680;DHT22;40578;53.178;5.846;2022-12-18T15:20:57;-1.90;1.00
54680;DHT22;40578;53.178;5.846;2022-12-18T15:26:06;-1.90;1.00
54680;DHT22;40578;53.178;5.846;2022-12-18T15:31:06;-1.90;1.00
54680;DHT22;40578;53.178;5.846;2022-12-18T15:33:34;-1.90;1.00
54680;DHT22;40578;53.178;5.846;2022-12-18T15:36:02;-1.80;1.00
54680;DHT22;40578;53.178;5.846;2022-12-18T15:38:28;-1.80;1.00
54680;DHT22;40578;53.178;5.846;2022-12-18T15:40:54;-1.90;1.00
54680;DHT22;40578;53.178;5.846;2022-12-18T15:43:22;-1.90;1.00
54680;DHT22;40578;53.178;5.846;2022-12-18T15:46:05;-1.90;1.00
54680;DHT22;40578;53.178;5.846;2022-12-18T15:48:39;-1.90;1.00
54680;DHT22;40578;53.178;5.846;2022-12-18T15:51:07;-1.90;1.00
54680;DHT22;40578;53.178;5.846;2022-12-18T15:53:36;-1.90;1.00
54680;DHT22;40578;53.178;5.846;2022-12-18T15:56:01;-1.80;4.90
54680;DHT22;40578;53.178;5.846;2022-12-18T15:58:45;-1.90;52.40
54680;DHT22;40578;53.178;5.846;2022-12-18T16:01:11;-1.80;28.20
54680;DHT22;40578;53.178;5.846;2022-12-18T16:03:37;-1.10;63.80
54680;DHT22;40578;53.178;5.846;2022-12-18T16:06:03;-1.80;74.30
54680;DHT22;40578;53.178;5.846;2022-12-18T16:08:29;-1.80;12.80
54680;DHT22;40578;53.178;5.846;2022-12-18T16:10:56;-1.80;68.20
54680;DHT22;40578;53.178;5.846;2022-12-18T16:13:22;-1.80;48.40
54680;DHT22;40578;53.178;5.846;2022-12-18T16:15:48;-1.90;17.10
54680;DHT22;40578;53.178;5.846;2022-12-18T16:18:13;-1.80;61.60
54680;DHT22;40578;53.178;5.846;2022-12-18T16:20:39;-1.80;57.60
54680;DHT22;40578;53.178;5.846;2022-12-18T16:23:05;-1.80;84.70
54680;DHT22;40578;53.178;5.846;2022-12-18T16:25:31;-1.80;93.70
54680;DHT22;40578;53.178;5.846;2022-12-18T16:27:56;-1.70;91.30
54680;DHT22;40578;53.178;5.846;2022-12-18T16:30:27;-1.70;29.00
54680;DHT22;40578;53.178;5.846;2022-12-18T16:32:56;-1.70;23.80
54680;DHT22;40578;53.178;5.846;2022-12-18T16:35:24;-1.70;24.80
54680;DHT22;40578;53.178;5.846;2022-12-18T16:37:50;-1.70;45.60
54680;DHT22;40578;53.178;5.846;2022-12-18T16:40:17;-1.70;91.20
54680;DHT22;40578;53.178;5.846;2022-12-18T16:42:44;-1.70;99.90
54680;DHT22;40578;53.178;5.846;2022-12-18T16:45:13;-1.70;99.90
54680;DHT22;40578;53.178;5.846;2022-12-18T16:47:39;-1.70;99.90
54680;DHT22;40578;53.178;5.846;2022-12-18T16:50:06;-1.70;99.90
54680;DHT22;40578;53.178;5.846;2022-12-18T16:52:31;-1.70;99.90
54680;DHT22;40578;53.178;5.846;2022-12-18T16:54:57;-1.60;99.90
54680;DHT22;40578;53.178;5.846;2022-12-18T16:57:23;-1.60;99.90
54680;DHT22;40578;53.178;5.846;2022-12-18T16:59:49;-1.70;99.90
54680;DHT22;40578;53.178;5.846;2022-12-18T17:02:17;-1.60;99.90
54680;DHT22;40578;53.178;5.846;2022-12-18T17:04:43;-1.50;99.90
54680;DHT22;40578;53.178;5.846;2022-12-18T17:07:09;-1.00;99.90
54680;DHT22;40578;53.178;5.846;2022-12-18T17:09:36;-1.50;99.90
54680;DHT22;40578;53.178;5.846;2022-12-18T17:12:01;-1.50;99.90
54680;DHT22;40578;53.178;5.846;2022-12-18T17:14:27;-1.50;99.90
54680;DHT22;40578;53.178;5.846;2022-12-18T17:16:54;-1.50;99.90
54680;DHT22;40578;53.178;5.846;2022-12-18T17:19:20;-1.50;99.90
54680;DHT22;40578;53.178;5.846;2022-12-18T17:21:48;-1.50;99.90
54680;DHT22;40578;53.178;5.846;2022-12-18T17:24:14;-1.50;99.90
54680;DHT22;40578;53.178;5.846;2022-12-18T17:26:40;-1.50;99.90
54680;DHT22;40578;53.178;5.846;2022-12-18T17:29:06;-1.50;99.90
54680;DHT22;40578;53.178;5.846;2022-12-18T17:31:33;-1.50;99.90
54680;DHT22;40578;53.178;5.846;2022-12-18T17:34:01;-1.50;99.90
54680;DHT22;40578;53.178;5.846;2022-12-18T17:36:27;-1.50;99.90
54680;DHT22;40578;53.178;5.846;2022-12-18T17:38:55;-1.40;99.90
54680;DHT22;40578;53.178;5.846;2022-12-18T17:41:22;-0.60;99.90
54680;DHT22;40578;53.178;5.846;2022-12-18T17:43:55;-0.20;99.90
54680;DHT22;40578;53.178;5.846;2022-12-18T17:46:22;-1.50;99.90
54680;DHT22;40578;53.178;5.846;2022-12-18T17:48:48;-1.40;99.90
54680;DHT22;40578;53.178;5.846;2022-12-18T17:51:15;-1.50;99.90
54680;DHT22;40578;53.178;5.846;2022-12-18T17:53:41;-1.40;99.90
54680;DHT22;40578;53.178;5.846;2022-12-18T17:56:11;-1.40;99.90
54680;DHT22;40578;53.178;5.846;2022-12-18T17:58:37;-1.40;99.90
54680;DHT22;40578;53.178;5.846;2022-12-18T18:01:04;-1.50;99.90